Time;durP1;ratioP1;P1;durP2;ratioP2;P2;SDS_P1;SDS_P2;PMS_P1;PMS_P2;Temp;Humidity;BMP_temperature;BMP_pressure;BME280_temperature;BME280_humidity;BME280_pressure;Samples;Min_cycle;Max_cycle;Signal;HPM_P1;HPM_P2
2021/09/12 00:00:18;;;;;;;13.32;9.45;;;;;;;16.40;81.98;96509.03;5094592;28;20050;-71
2021/09/12 00:02:44;;;;;;;13.32;8.80;;;;;;;16.39;82.47;96512.94;5094501;28;20055;-71
2021/09/12 00:05:13;;;;;;;11.02;8.75;;;;;;;16.38;82.38;96516.00;5094561;28;20051;-71
2021/09/12 00:07:39;;;;;;;11.55;8.30;;;;;;;16.37;81.76;96515.22;5095184;28;20068;-71
2021/09/12 00:10:07;;;;;;;13.05;8.43;;;;;;;16.37;81.71;96506.16;5094530;28;20044;-71
2021/09/12 00:12:34;;;;;;;11.77;9.25;;;;;;;16.41;81.41;96510.63;5094793;28;20608;-73
2021/09/12 00:15:02;;;;;;;12.95;8.95;;;;;;;16.40;81.36;96506.28;5094694;28;20055;-73
2021/09/12 00:17:28;;;;;;;13.43;8.75;;;;;;;16.33;81.35;96503.31;5094106;28;20047;-73
2021/09/12 00:19:54;;;;;;;11.90;9.02;;;;;;;16.29;81.52;96499.69;5094844;28;20044;-73
2021/09/12 00:22:22;;;;;;;12.50;8.68;;;;;;;16.26;81.88;96505.09;5093998;28;20053;-73
2021/09/12 00:24:49;;;;;;;12.52;8.32;;;;;;;16.21;81.95;96494.34;5093938;28;20040;-73
2021/09/12 00:27:15;;;;;;;12.88;8.07;;;;;;;16.18;81.91;96496.66;5094241;28;20055;-73
2021/09/12 00:29:42;;;;;;;14.73;9.45;;;;;;;16.15;82.23;96502.03;5094633;28;20036;-73
2021/09/12 00:32:08;;;;;;;12.93;9.50;;;;;;;16.12;82.36;96500.78;5093961;28;20491;-73
2021/09/12 00:34:35;;;;;;;13.82;8.35;;;;;;;16.10;82.53;96499.53;5094383;28;20514;-73
2021/09/12 00:37:01;;;;;;;14.98;8.30;;;;;;;16.11;82.69;96501.13;5094028;28;20043;-73
2021/09/12 00:39:29;;;;;;;11.70;8.15;;;;;;;16.11;82.51;96501.94;5094534;28;20051;-73
2021/09/12 00:41:56;;;;;;;10.70;8.23;;;;;;;16.12;82.85;96508.22;5094378;28;20131;-71
2021/09/12 00:44:24;;;;;;;13.00;8.85;;;;;;;16.08;82.47;96497.16;5093990;28;20043;-71
2021/09/12 00:46:52;;;;;;;12.45;9.55;;;;;;;16.09;82.79;96504.25;5094247;28;20046;-71
2021/09/12 00:49:19;;;;;;;13.60;9.32;;;;;;;16.08;83.18;96501.84;5093906;28;20044;-71
2021/09/12 00:51:45;;;;;;;17.42;9.57;;;;;;;16.10;83.05;96500.34;5094363;28;20036;-73
2021/09/12 00:54:13;;;;;;;11.05;8.52;;;;;;;16.13;82.26;96509.81;5093418;28;20055;-72
2021/09/12 00:56:42;;;;;;;12.02;9.02;;;;;;;16.10;82.03;96505.03;5093897;28;20495;-72
2021/09/12 00:59:11;;;;;;;12.40;8.70;;;;;;;16.08;82.13;96501.84;5093693;28;20403;-72
2021/09/12 01:01:41;;;;;;;11.73;8.15;;;;;;;16.11;81.80;96499.19;5093686;28;20036;-71
2021/09/12 01:04:08;;;;;;;11.88;8.25;;;;;;;16.11;81.93;96496.44;5093067;28;20047;-71
2021/09/12 01:06:35;;;;;;;10.95;7.40;;;;;;;16.06;82.17;96487.66;5093853;28;20487;-72
2021/09/12 01:09:02;;;;;;;11.85;8.30;;;;;;;15.99;81.83;96487.47;5093631;28;20044;-72
2021/09/12 01:11:28;;;;;;;11.57;8.30;;;;;;;15.92;82.02;96488.03;5093789;28;20051;-72
2021/09/12 01:13:56;;;;;;;13.10;8.15;;;;;;;15.90;82.09;96491.16;5093714;28;20044;-72
2021/09/12 01:16:23;;;;;;;11.88;8.10;;;;;;;15.88;82.83;96493.47;5093094;28;20418;-72
2021/09/12 01:18:50;;;;;;;11.68;8.10;;;;;;;15.90;82.63;96502.13;5093669;28;20044;-73
2021/09/12 01:21:18;;;;;;;10.25;7.90;;;;;;;15.93;82.45;96497.09;5092894;28;20044;-71
2021/09/12 01:23:46;;;;;;;10.15;7.85;;;;;;;15.96;81.99;96488.16;5093472;28;20043;-71
2021/09/12 01:26:14;;;;;;;10.07;7.35;;;;;;;15.93;81.66;96483.38;5093216;28;20048;-71
2021/09/12 01:28:42;;;;;;;13.10;8.18;;;;;;;15.84;81.80;96491.75;5093661;28;20044;-72
2021/09/12 01:31:18;;;;;;;12.10;8.27;;;;;;;15.79;82.31;96484.56;5092751;28;20048;-72
2021/09/12 01:33:45;;;;;;;11.98;8.70;;;;;;;15.77;82.39;96486.06;5091934;28;20452;-71
2021/09/12 01:36:11;;;;;;;12.85;8.02;;;;;;;15.74;82.64;96482.06;5093073;28;20062;-71
2021/09/12 01:38:38;;;;;;;12.82;7.45;;;;;;;15.73;82.64;96480.47;5093203;28;20494;-72
2021/09/12 01:41:04;;;;;;;10.93;7.25;;;;;;;15.70;82.65;96475.66;5092472;28;20040;-72
2021/09/12 01:43:32;;;;;;;11.15;7.70;;;;;;;15.68;82.44;96482.66;5093015;28;20040;-72
2021/09/12 01:45:59;;;;;;;12.10;7.60;;;;;;;15.66;82.49;96480.25;5093144;28;20376;-72
2021/09/12 01:48:25;;;;;;;10.50;7.35;;;;;;;15.65;82.65;96484.94;5092771;28;20431;-72
2021/09/12 01:50:52;;;;;;;9.35;7.30;;;;;;;15.63;82.76;96491.94;5093222;28;20036;-72
2021/09/12 01:53:18;;;;;;;10.23;7.43;;;;;;;15.59;82.37;96486.28;5092660;28;20059;-71
2021/09/12 01:55:45;;;;;;;9.70;6.95;;;;;;;15.60;82.28;96487.09;5092645;28;20040;-71
2021/09/12 01:58:11;;;;;;;9.85;7.07;;;;;;;15.54;81.63;96483.00;5092252;28;20600;-72
2021/09/12 02:00:39;;;;;;;9.48;7.07;;;;;;;15.50;82.03;96493.06;5092526;28;20044;-72
2021/09/12 02:03:05;;;;;;;9.02;7.43;;;;;;;15.46;82.09;96486.69;5092201;28;20039;-72
2021/09/12 02:05:32;;;;;;;9.88;7.40;;;;;;;15.40;82.16;96489.66;5092673;28;20040;-72
2021/09/12 02:07:58;;;;;;;10.85;7.57;;;;;;;15.37;82.33;96482.09;5092754;28;20047;-71
2021/09/12 02:10:26;;;;;;;10.40;7.00;;;;;;;15.35;82.21;96481.66;5092241;28;20047;-72
2021/09/12 02:12:53;;;;;;;13.52;7.45;;;;;;;15.33;82.39;96481.19;5092667;28;20044;-72
2021/09/12 02:15:20;;;;;;;12.73;7.30;;;;;;;15.34;82.59;96482.00;5091804;28;20040;-72
2021/09/12 02:17:48;;;;;;;13.93;8.10;;;;;;;15.34;82.66;96477.31;5092205;28;20135;-72
2021/09/12 02:20:14;;;;;;;12.27;7.70;;;;;;;15.33;82.94;96475.72;5092062;28;20047;-72
2021/09/12 02:22:40;;;;;;;12.13;7.55;;;;;;;15.32;82.75;96473.31;5092406;28;20032;-72
2021/09/12 02:25:08;;;;;;;9.52;7.13;;;;;;;15.33;82.84;96469.44;5091892;28;20399;-72
2021/09/12 02:27:34;;;;;;;14.10;7.75;;;;;;;15.31;82.72;96478.00;5092398;28;20041;-71
2021/09/12 02:30:01;;;;;;;9.82;6.97;;;;;;;15.31;82.88;96478.00;5092201;28;20082;-72
2021/09/12 02:32:27;;;;;;;10.93;7.28;;;;;;;15.31;82.69;96471.72;5091826;28;20052;-71
2021/09/12 02:34:55;;;;;;;10.65;7.40;;;;;;;15.27;82.79;96474.34;5092105;28;20040;-72
2021/09/12 02:37:22;;;;;;;11.60;7.00;;;;;;;15.25;82.77;96476.66;5091468;28;20052;-71
2021/09/12 02:39:48;;;;;;;11.35;7.30;;;;;;;15.25;82.57;96479.41;5092484;28;20040;-72
2021/09/12 02:42:15;;;;;;;9.75;7.30;;;;;;;15.20;82.71;96479.63;5091539;28;20048;-72
2021/09/12 02:44:42;;;;;;;12.82;7.63;;;;;;;15.18;82.60;96486.59;5092019;28;20040;-71
2021/09/12 02:47:08;;;;;;;11.57;7.70;;;;;;;15.14;82.54;96470.84;5091719;28;20495;-72
2021/09/12 02:53:49;;;;;;;9.77;7.55;;;;;;;15.12;83.29;96472.31;5091927;28;20586;-71
2021/09/12 02:56:17;;;;;;;11.30;8.20;;;;;;;15.12;83.42;96469.56;5087334;28;20064;-71
2021/09/12 02:58:43;;;;;;;9.77;7.22;;;;;;;15.14;83.50;96470.03;5091784;28;20051;-71
2021/09/12 03:01:10;;;;;;;9.52;7.40;;;;;;;15.11;83.28;96476.19;5091203;28;20051;-71
2021/09/12 03:03:36;;;;;;;11.30;7.50;;;;;;;15.14;83.04;96470.84;5091370;28;20044;-71
2021/09/12 03:06:03;;;;;;;12.77;7.88;;;;;;;15.14;82.86;96470.84;5091472;28;20051;-71
2021/09/12 03:08:29;;;;;;;13.82;7.13;;;;;;;15.12;83.03;96467.63;5091218;28;20122;-71
2021/09/12 03:10:56;;;;;;;9.68;6.85;;;;;;;15.15;83.28;96471.63;5090583;28;20044;-71
2021/09/12 03:13:24;;;;;;;10.43;6.90;;;;;;;15.13;83.46;96469.22;5090792;28;20488;-71
2021/09/12 03:15:50;;;;;;;9.65;6.70;;;;;;;15.12;82.96;96475.84;5091473;28;20432;-72
2021/09/12 03:18:16;;;;;;;9.73;7.32;;;;;;;15.18;83.09;96470.94;5090944;28;20059;-71
2021/09/12 03:20:43;;;;;;;9.77;7.07;;;;;;;15.22;82.34;96471.84;5091561;28;20059;-73
2021/09/12 03:23:10;;;;;;;11.30;7.07;;;;;;;15.21;82.45;96467.50;5090608;28;20487;-71
2021/09/12 03:25:36;;;;;;;11.07;7.25;;;;;;;15.17;82.54;96469.34;5093361;28;20060;-71
2021/09/12 03:28:03;;;;;;;10.52;7.68;;;;;;;15.14;82.80;96465.34;5090841;28;20407;-72
2021/09/12 03:30:31;;;;;;;10.63;7.70;;;;;;;15.14;83.04;96470.84;5091537;28;20040;-72
2021/09/12 03:32:57;;;;;;;11.23;7.80;;;;;;;15.18;83.46;96464.66;5091226;28;20537;-72
2021/09/12 03:35:24;;;;;;;9.70;6.85;;;;;;;15.22;82.46;96471.84;5091064;28;20051;-72
2021/09/12 03:37:50;;;;;;;11.75;6.97;;;;;;;15.23;82.10;96467.16;5091467;28;20048;-72
2021/09/12 03:40:17;;;;;;;12.38;8.25;;;;;;;15.19;82.08;96456.09;5090781;28;20048;-72
2021/09/12 03:42:43;;;;;;;12.13;7.72;;;;;;;15.17;82.57;96460.31;5091362;28;20044;-72
2021/09/12 03:45:10;;;;;;;14.07;7.78;;;;;;;15.13;82.68;96455.50;5090906;28;20047;-71
2021/09/12 03:47:38;;;;;;;8.35;7.15;;;;;;;15.19;82.33;96463.50;5091087;28;20517;-71
2021/09/12 03:50:06;;;;;;;12.05;8.15;;;;;;;15.14;82.09;96464.56;5090974;28;20052;-72
2021/09/12 03:52:32;;;;;;;10.32;7.50;;;;;;;15.10;82.34;96458.16;5091154;28;20047;-71
2021/09/12 03:54:59;;;;;;;11.63;7.43;;;;;;;15.11;82.37;96454.25;5090967;28;20063;-72
2021/09/12 03:57:25;;;;;;;9.43;6.75;;;;;;;15.10;82.41;96458.16;5090534;28;20044;-72
2021/09/12 03:59:52;;;;;;;11.85;7.15;;;;;;;15.11;82.82;96454.25;5091040;28;20055;-71
2021/09/12 04:02:19;;;;;;;8.23;6.57;;;;;;;15.09;82.99;96459.31;5090369;28;20051;-72
2021/09/12 04:04:47;;;;;;;13.10;7.15;;;;;;;15.14;82.77;96459.06;5090910;28;20048;-72
2021/09/12 04:07:13;;;;;;;12.13;6.50;;;;;;;15.19;82.21;96464.31;5090715;28;20045;-72
2021/09/12 04:09:39;;;;;;;12.55;7.40;;;;;;;15.21;82.03;96467.50;5090931;28;20047;-72
2021/09/12 04:12:07;;;;;;;11.25;7.72;;;;;;;15.18;82.04;96465.44;5090664;28;20040;-72
2021/09/12 04:14:33;;;;;;;11.27;7.20;;;;;;;15.14;81.95;96467.28;5090896;28;20044;-71
2021/09/12 04:16:59;;;;;;;10.57;7.57;;;;;;;15.17;82.38;96463.06;5091169;28;20036;-71
2021/09/12 04:19:26;;;;;;;13.43;7.60;;;;;;;15.16;82.55;96467.75;5090509;28;20511;-72
2021/09/12 04:21:54;;;;;;;9.93;7.05;;;;;;;15.14;82.61;96464.56;5090995;28;20048;-71
2021/09/12 04:24:20;;;;;;;11.20;7.53;;;;;;;15.10;82.97;96463.63;5094608;28;20048;-71
2021/09/12 04:26:47;;;;;;;10.27;7.57;;;;;;;15.06;82.85;96468.19;5098163;28;20040;-72
2021/09/12 04:29:14;;;;;;;12.35;7.57;;;;;;;15.03;82.95;96469.69;5094114;28;20055;-72
2021/09/12 04:31:40;;;;;;;9.60;6.97;;;;;;;15.03;82.91;96464.19;5094268;28;20494;-72
2021/09/12 04:34:07;;;;;;;9.93;7.30;;;;;;;15.02;82.93;96467.28;5093981;28;20403;-72
2021/09/12 04:36:33;;;;;;;10.00;7.53;;;;;;;15.01;82.77;96460.22;5094400;28;20040;-71
2021/09/12 04:39:01;;;;;;;10.00;7.22;;;;;;;15.00;83.00;96466.84;5094526;28;20044;-71
2021/09/12 04:41:27;;;;;;;9.68;7.32;;;;;;;15.01;83.25;96465.69;5094187;28;20036;-72
2021/09/12 04:43:54;;;;;;;10.48;6.80;;;;;;;15.03;82.94;96468.88;5094453;28;20044;-72
2021/09/12 04:46:20;;;;;;;10.50;6.88;;;;;;;15.01;82.94;96474.72;5093975;28;20059;-72
2021/09/12 04:48:47;;;;;;;9.90;6.72;;;;;;;15.02;83.23;96481.00;5094337;28;20040;-71
2021/09/12 04:51:13;;;;;;;13.43;7.82;;;;;;;15.02;83.36;96473.56;5093709;28;20055;-72
2021/09/12 04:53:40;;;;;;;10.70;6.90;;;;;;;15.07;83.59;96483.50;5094366;28;20036;-72
2021/09/12 04:56:08;;;;;;;9.43;6.88;;;;;;;15.08;83.08;96483.16;5095439;28;20060;-71
2021/09/12 04:58:34;;;;;;;9.77;7.00;;;;;;;15.07;82.94;96486.25;5094090;28;20055;-71
2021/09/12 05:01:02;;;;;;;9.15;6.93;;;;;;;15.07;82.56;96495.28;5094264;28;20635;-72
2021/09/12 05:03:29;;;;;;;10.18;6.63;;;;;;;15.03;82.41;96490.81;5093899;28;20132;-72
2021/09/12 05:05:56;;;;;;;11.45;5.97;;;;;;;15.02;82.12;96491.97;5093770;28;20430;-71
2021/09/12 05:08:22;;;;;;;12.32;7.72;;;;;;;14.98;82.05;96488.31;5093327;28;20051;-72
2021/09/12 05:10:49;;;;;;;8.68;6.22;;;;;;;14.95;82.27;96483.53;5093759;28;20499;-71
2021/09/12 05:13:17;;;;;;;7.65;5.75;;;;;;;14.97;82.39;96492.19;5093354;28;20600;-71
2021/09/12 05:15:43;;;;;;;12.02;6.00;;;;;;;14.97;81.97;96484.75;5093869;28;20043;-71
2021/09/12 05:18:10;;;;;;;9.25;6.85;;;;;;;14.94;82.10;96488.22;5093437;28;20069;-71
2021/09/12 05:20:37;;;;;;;11.60;7.40;;;;;;;14.95;82.27;96489.00;5108084;27;20082;-72
2021/09/12 05:23:04;;;;;;;10.73;6.43;;;;;;;14.95;82.44;96489.81;5113132;27;20044;-72
2021/09/12 05:25:31;;;;;;;9.40;6.30;;;;;;;14.99;82.43;96487.19;5104860;27;20059;-71
2021/09/12 05:27:58;;;;;;;9.88;6.53;;;;;;;14.98;82.82;96494.63;5093232;28;20115;-71
2021/09/12 05:30:26;;;;;;;9.63;6.63;;;;;;;15.07;82.59;96492.53;5092809;28;20376;-71
2021/09/12 05:32:53;;;;;;;8.35;5.70;;;;;;;15.13;82.37;96504.06;5093176;28;20465;-75
2021/09/12 05:35:20;;;;;;;12.50;6.35;;;;;;;15.12;82.14;96494.25;5090775;28;20044;-75
2021/09/12 05:37:47;;;;;;;7.80;5.78;;;;;;;15.12;82.00;96494.25;5090574;28;20044;-77
2021/09/12 05:40:15;;;;;;;9.82;6.30;;;;;;;15.14;81.97;96497.47;5089394;28;20084;-75
2021/09/12 05:42:42;;;;;;;9.18;5.95;;;;;;;15.14;82.03;96491.97;5089830;28;20051;-76
2021/09/12 05:45:10;;;;;;;7.55;5.45;;;;;;;15.13;81.66;96490.34;5089441;28;20540;-76
2021/09/12 05:47:38;;;;;;;7.97;6.07;;;;;;;15.11;81.70;96493.47;5089953;28;20055;-76
2021/09/12 05:50:06;;;;;;;8.63;5.90;;;;;;;15.11;81.81;96487.16;5089535;28;20044;-76
2021/09/12 05:52:33;;;;;;;10.23;5.97;;;;;;;15.16;82.39;96488.88;5089853;28;20044;-78
2021/09/12 05:55:00;;;;;;;7.38;5.80;;;;;;;15.22;82.73;96491.03;5089562;28;20051;-76
2021/09/12 05:57:27;;;;;;;10.15;6.82;;;;;;;15.30;82.79;96483.84;5088994;28;20051;-76
2021/09/12 05:59:53;;;;;;;11.40;6.22;;;;;;;15.34;82.75;96485.53;5089629;28;20044;-75
2021/09/12 06:02:20;;;;;;;8.18;5.93;;;;;;;15.38;82.13;96486.44;5089106;28;20426;-75
2021/09/12 06:04:47;;;;;;;11.35;7.10;;;;;;;15.42;82.11;96486.56;5089910;28;20055;-75
2021/09/12 06:07:14;;;;;;;8.98;6.05;;;;;;;15.45;82.18;96485.06;5088900;28;20047;-76
2021/09/12 06:09:40;;;;;;;8.25;6.10;;;;;;;15.49;82.22;96481.28;5089243;28;20499;-76
2021/09/12 06:12:08;;;;;;;10.57;6.82;;;;;;;15.54;82.46;96485.72;5089099;28;20052;-75
2021/09/12 06:14:36;;;;;;;9.05;6.40;;;;;;;15.68;82.57;96483.44;5089674;28;20051;-76
2021/09/12 06:17:04;;;;;;;7.60;5.80;;;;;;;15.75;81.86;96482.84;5088891;28;20044;-76
2021/09/12 06:19:31;;;;;;;7.93;6.07;;;;;;;15.77;81.92;96492.34;5089418;28;20131;-76
2021/09/12 06:21:59;;;;;;;8.02;6.07;;;;;;;15.84;82.14;96498.03;5089541;28;20047;-75
2021/09/12 06:24:26;;;;;;;6.80;5.63;;;;;;;15.87;82.20;96491.88;5088575;28;20052;-78
2021/09/12 06:26:52;;;;;;;7.88;5.90;;;;;;;15.94;82.10;96501.44;5091210;28;20126;-75
2021/09/12 06:29:19;;;;;;;8.75;6.15;;;;;;;16.04;82.01;96500.94;5088770;28;20059;-77
2021/09/12 06:31:46;;;;;;;12.40;5.88;;;;;;;16.11;82.16;96501.13;5089054;28;20040;-76
2021/09/12 06:34:13;;;;;;;7.70;5.40;;;;;;;16.13;81.93;96496.91;5088727;28;20148;-76
2021/09/12 06:36:39;;;;;;;7.30;5.85;;;;;;;16.19;80.90;96497.44;5089240;28;20044;-75
2021/09/12 06:39:07;;;;;;;9.05;6.38;;;;;;;16.21;81.01;96497.09;5088524;28;20036;-75
2021/09/12 06:41:34;;;;;;;8.90;6.28;;;;;;;16.27;80.99;96492.94;5088751;28;20040;-74
2021/09/12 06:44:00;;;;;;;11.95;6.30;;;;;;;16.38;80.79;96503.06;5089036;28;20486;-76
2021/09/12 06:46:27;;;;;;;9.90;5.65;;;;;;;16.46;79.84;96501.31;5088356;28;20070;-77
2021/09/12 06:48:53;;;;;;;8.57;6.05;;;;;;;16.51;80.13;96497.50;5086036;28;20045;-75
2021/09/12 06:51:19;;;;;;;9.10;6.22;;;;;;;16.59;80.38;96499.28;5087644;28;20059;-75
2021/09/12 06:53:46;;;;;;;10.68;6.72;;;;;;;16.64;80.42;96507.28;5089067;28;20043;-75
2021/09/12 06:56:14;;;;;;;9.77;7.47;;;;;;;16.64;80.52;96496.28;5087942;28;20070;-76
2021/09/12 06:58:42;;;;;;;10.65;7.30;;;;;;;16.65;80.85;96503.34;5088666;28;20044;-76
2021/09/12 07:01:08;;;;;;;9.57;7.68;;;;;;;16.73;81.04;96502.44;5088036;28;20569;-76
2021/09/12 07:03:35;;;;;;;11.00;8.85;;;;;;;16.85;80.56;96498.78;5088426;28;20051;-75
2021/09/12 07:06:01;;;;;;;11.90;9.20;;;;;;;16.93;81.27;96498.63;5087831;28;20036;-75
2021/09/12 07:08:28;;;;;;;11.77;9.80;;;;;;;17.03;81.32;96507.50;5088494;28;20044;-75
2021/09/12 07:10:54;;;;;;;13.20;9.52;;;;;;;17.10;80.88;96496.66;5088696;28;20047;-76
2021/09/12 07:13:22;;;;;;;14.63;9.43;;;;;;;17.41;81.43;96507.63;5087918;28;20056;-77
2021/09/12 07:15:48;;;;;;;11.65;9.05;;;;;;;18.46;79.24;96506.69;5088204;28;20047;-76
2021/09/12 07:18:15;;;;;;;11.98;8.30;;;;;;;19.51;75.46;96505.31;5087422;28;20055;-76
2021/09/12 07:20:42;;;;;;;9.05;7.65;;;;;;;20.44;71.35;96512.06;5090544;28;20657;-76
2021/09/12 07:23:08;;;;;;;10.25;8.05;;;;;;;21.24;68.88;96514.44;5087380;28;20518;-75
2021/09/12 07:25:35;;;;;;;8.75;7.25;;;;;;;21.81;65.33;96509.31;5088585;28;20051;-76
2021/09/12 07:28:02;;;;;;;9.30;7.18;;;;;;;22.37;64.16;96510.78;5087531;28;20040;-74
2021/09/12 07:30:29;;;;;;;10.90;7.53;;;;;;;23.07;62.07;96514.13;5087958;28;20051;-76
2021/09/12 07:32:56;;;;;;;11.60;7.68;;;;;;;23.68;58.04;96507.38;5088298;28;20399;-76
2021/09/12 07:35:22;;;;;;;11.02;8.00;;;;;;;23.51;57.82;96519.31;5087217;28;20064;-77
2021/09/12 07:37:49;;;;;;;11.02;8.55;;;;;;;23.06;60.05;96521.66;5087748;28;20064;-76
2021/09/12 07:40:16;;;;;;;11.25;8.00;;;;;;;22.55;61.40;96514.44;5088033;28;20070;-75
2021/09/12 07:42:42;;;;;;;10.95;8.68;;;;;;;22.05;62.72;96519.75;5087929;28;20044;-75
2021/09/12 07:45:10;;;;;;;12.00;9.50;;;;;;;21.68;64.39;96521.91;5087557;28;20139;-76
2021/09/12 07:47:37;;;;;;;11.18;9.05;;;;;;;21.29;65.25;96516.84;5087689;28;20051;-76
2021/09/12 07:50:05;;;;;;;10.63;8.98;;;;;;;20.99;66.93;96512.25;5089809;28;20033;-77
2021/09/12 07:52:32;;;;;;;16.27;10.68;;;;;;;20.82;68.44;96515.63;5088124;28;20132;-77
2021/09/12 07:54:58;;;;;;;13.80;11.07;;;;;;;20.64;69.27;96514.69;5088134;28;20092;-76
2021/09/12 07:57:25;;;;;;;12.15;9.48;;;;;;;20.68;70.18;96510.00;5088269;28;20052;-77
2021/09/12 07:59:51;;;;;;;13.20;10.20;;;;;;;20.70;69.73;96519.47;5092459;28;20055;-76
2021/09/12 08:02:18;;;;;;;13.35;10.40;;;;;;;20.69;68.97;96517.09;5091659;28;20498;-76
2021/09/12 08:04:45;;;;;;;13.75;10.65;;;;;;;20.72;69.96;96516.34;5092354;28;20044;-78
2021/09/12 08:07:12;;;;;;;13.88;10.75;;;;;;;20.65;69.94;96516.25;5091356;28;20047;-76
2021/09/12 08:09:38;;;;;;;13.48;10.50;;;;;;;20.46;68.87;96515.25;5091088;28;20040;-76
2021/09/12 08:12:05;;;;;;;14.27;10.32;;;;;;;20.36;70.19;96515.94;5091666;28;20055;-77
2021/09/12 08:14:32;;;;;;;11.77;9.98;;;;;;;20.48;71.30;96515.69;5091609;28;20040;-76
2021/09/12 08:16:58;;;;;;;12.57;9.35;;;;;;;20.54;70.99;96521.69;5091253;28;20059;-76
2021/09/12 08:19:25;;;;;;;12.65;9.68;;;;;;;20.89;70.62;96521.25;5093454;28;20048;-77
2021/09/12 08:21:53;;;;;;;11.38;8.15;;;;;;;22.01;66.09;96520.91;5091854;28;20087;-75
2021/09/12 08:24:19;;;;;;;10.23;8.00;;;;;;;22.12;63.23;96519.78;5091324;28;20056;-77
2021/09/12 08:26:46;;;;;;;11.93;7.95;;;;;;;22.10;64.11;96524.94;5091667;28;20052;-77
2021/09/12 08:29:12;;;;;;;8.77;6.93;;;;;;;22.55;62.23;96525.53;5091180;28;20051;-75
2021/09/12 08:31:39;;;;;;;9.23;7.53;;;;;;;23.38;61.82;96532.00;5091827;28;20048;-76
2021/09/12 08:34:06;;;;;;;11.50;7.60;;;;;;;24.34;58.82;96519.91;5091612;28;20778;-76
2021/09/12 08:36:33;;;;;;;12.00;7.80;;;;;;;25.09;56.17;96525.13;5091516;28;20070;-75
2021/09/12 08:39:01;;;;;;;7.05;5.65;;;;;;;25.85;54.25;96531.69;5092748;28;20051;-77
2021/09/12 08:41:28;;;;;;;8.90;6.75;;;;;;;26.24;50.40;96515.28;5093880;28;20578;-76
2021/09/12 08:43:54;;;;;;;8.55;6.55;;;;;;;26.37;50.85;96523.13;5093037;28;20661;-76
2021/09/12 08:46:21;;;;;;;10.27;8.13;;;;;;;26.77;51.22;96530.59;5090131;28;20143;-75
2021/09/12 08:48:47;;;;;;;11.77;8.00;;;;;;;27.21;48.26;96526.00;5091117;28;20047;-77
2021/09/12 08:51:14;;;;;;;9.38;7.50;;;;;;;27.54;47.48;96526.25;5091560;28;20059;-76
2021/09/12 08:53:41;;;;;;;8.32;6.40;;;;;;;27.93;47.34;96524.78;5090903;28;20036;-77
2021/09/12 08:56:09;;;;;;;9.98;6.68;;;;;;;28.22;46.14;96525.84;5089624;28;20044;-76
2021/09/12 08:58:36;;;;;;;8.65;5.90;;;;;;;28.44;44.92;96519.84;5089321;28;20048;-76
2021/09/12 09:01:04;;;;;;;7.18;5.60;;;;;;;28.50;44.38;96523.72;5087723;28;20125;-76
2021/09/12 09:03:35;;;;;;;7.35;5.95;;;;;;;28.18;44.43;96525.13;5089901;28;20511;-77
2021/09/12 09:06:11;;;;;;;7.25;6.22;;;;;;;27.70;46.64;96525.59;5092608;28;20094;-75
2021/09/12 09:08:49;;;;;;;9.80;6.45;;;;;;;27.30;47.47;96522.66;5090234;28;20117;-75
2021/09/12 09:11:27;;;;;;;9.27;6.00;;;;;;;27.29;46.54;96527.44;5090744;28;20079;-76
2021/09/12 09:13:54;;;;;;;8.90;6.13;;;;;;;27.23;46.85;96517.97;5092194;28;20068;-76
2021/09/12 09:16:26;;;;;;;8.00;5.68;;;;;;;26.85;47.71;96513.75;5091181;28;20055;-76
2021/09/12 09:19:02;;;;;;;7.60;6.13;;;;;;;25.94;49.33;96510.44;5092505;28;20055;-76
2021/09/12 09:21:31;;;;;;;8.00;6.50;;;;;;;25.36;51.04;96512.16;5090249;28;20043;-77
2021/09/12 09:24:08;;;;;;;7.72;6.43;;;;;;;24.76;53.45;96515.38;5090678;28;20076;-76
2021/09/12 09:26:39;;;;;;;8.13;6.25;;;;;;;24.20;55.30;96510.41;5089910;28;20048;-76
2021/09/12 09:29:05;;;;;;;8.95;6.53;;;;;;;23.90;56.64;96507.34;5090206;28;20048;-76
2021/09/12 09:31:32;;;;;;;9.02;6.55;;;;;;;23.46;57.82;96511.38;5090318;28;20051;-74
2021/09/12 09:34:14;;;;;;;9.52;7.53;;;;;;;23.14;60.66;96506.59;5090128;28;20064;-74
2021/09/12 09:36:41;;;;;;;9.95;8.13;;;;;;;22.79;61.40;96512.09;5089655;28;20526;-76
2021/09/12 09:39:07;;;;;;;9.02;6.75;;;;;;;22.55;62.88;96508.88;5089798;28;20497;-74
2021/09/12 09:41:38;;;;;;;10.05;7.57;;;;;;;22.39;63.78;96512.00;5090043;28;20062;-74
2021/09/12 09:44:10;;;;;;;10.13;7.75;;;;;;;22.16;63.31;96503.19;5089040;28;20055;-74
2021/09/12 09:46:38;;;;;;;;;;;;;;;22.07;63.97;96506.28;5089543;28;20048;-75
2021/09/12 09:49:28;;;;;;;11.73;8.00;;;;;;;22.01;65.50;96507.03;5091195;28;19966;-77
2021/09/12 09:51:56;;;;;;;10.35;7.82;;;;;;;22.03;66.24;96505.47;5068555;28;20052;-75
2021/09/12 09:54:26;;;;;;;18.63;10.98;;;;;;;22.07;66.61;96506.28;5068155;28;20051;-75
2021/09/12 09:56:55;;;;;;;8.95;7.78;;;;;;;22.05;65.86;96492.00;5082096;28;20819;-74
2021/09/12 09:59:23;;;;;;;9.40;6.95;;;;;;;22.13;66.07;96503.94;5088612;28;20055;-75
2021/09/12 10:01:51;;;;;;;11.00;7.00;;;;;;;22.13;65.54;96498.41;5088996;28;20043;-75
2021/09/12 10:04:18;;;;;;;10.25;7.35;;;;;;;22.06;65.22;96499.16;5088925;28;20062;-75
2021/09/12 10:06:46;;;;;;;10.35;7.10;;;;;;;22.04;66.06;96495.97;5089039;28;20047;-75
2021/09/12 10:09:13;;;;;;;10.32;7.40;;;;;;;22.01;66.15;96496.75;5089163;28;20052;-76
2021/09/12 10:11:42;;;;;;;7.90;6.40;;;;;;;22.03;65.90;96493.56;5089449;28;20051;-76
2021/09/12 10:14:12;;;;;;;10.13;7.55;;;;;;;22.06;64.93;96488.06;5088930;28;20044;-76
2021/09/12 10:16:39;;;;;;;8.82;6.47;;;;;;;22.31;65.54;96488.19;5088822;28;20048;-77
2021/09/12 10:19:06;;;;;;;7.82;6.40;;;;;;;22.67;65.12;96483.53;5090833;28;20051;-76
2021/09/12 10:21:32;;;;;;;13.05;7.22;;;;;;;22.94;63.58;96480.41;5087997;28;20283;-75
2021/09/12 10:24:04;;;;;;;8.15;5.97;;;;;;;23.14;61.63;96476.06;5088394;28;20048;-77
2021/09/12 10:26:33;;;;;;;7.88;6.13;;;;;;;23.31;60.54;96474.44;5087560;28;20052;-75
2021/09/12 10:29:00;;;;;;;7.20;5.40;;;;;;;23.40;60.53;96462.94;5088145;28;20036;-76
2021/09/12 10:31:34;;;;;;;6.65;5.18;;;;;;;23.37;59.74;96463.72;5088217;28;20047;-76
2021/09/12 10:34:09;;;;;;;8.02;6.20;;;;;;;23.45;59.13;96465.31;5089062;28;20051;-75
2021/09/12 10:36:36;;;;;;;10.00;5.90;;;;;;;23.44;60.36;96463.75;5088475;28;20044;-77
2021/09/12 10:39:26;;;;;;;7.75;5.85;;;;;;;23.48;58.35;96453.38;5088733;28;20411;-76
2021/09/12 10:42:20;;;;;;;7.57;5.38;;;;;;;23.44;58.05;96458.19;5088627;28;20040;-75
2021/09/12 10:45:07;;;;;;;7.45;4.97;;;;;;;23.42;58.38;96452.22;5068120;28;20699;-75
2021/09/12 10:47:34;;;;;;;6.80;4.80;;;;;;;23.36;56.66;96451.81;5067901;28;20044;-74
2021/09/12 10:50:01;;;;;;;7.35;4.68;;;;;;;23.29;58.75;96448.28;5069589;28;20041;-75
2021/09/12 10:52:45;;;;;;;6.32;4.43;;;;;;;23.13;58.31;96457.03;5068961;28;20045;-76
2021/09/12 10:55:12;;;;;;;6.53;4.45;;;;;;;22.95;58.63;96459.78;5068289;28;20519;-76
2021/09/12 10:57:38;;;;;;;5.75;3.70;;;;;;;22.88;59.21;96459.78;5068253;28;20695;-76
2021/09/12 11:00:22;;;;;;;5.10;3.72;;;;;;;22.75;58.05;96450.22;5086002;27;20478;-74
2021/09/12 11:02:50;;;;;;;5.20;3.80;;;;;;;22.66;59.52;96447.84;5085799;28;20051;-76
2021/09/12 11:05:25;;;;;;;5.20;4.30;;;;;;;22.55;60.18;96445.06;5085278;28;20059;-76
2021/09/12 11:07:52;;;;;;;4.60;3.58;;;;;;;22.54;61.69;96446.22;5085306;28;20052;-76
2021/09/12 11:10:34;;;;;;;4.78;3.63;;;;;;;22.51;59.96;96447.03;5085184;28;20048;-75
2021/09/12 11:13:01;;;;;;;5.35;4.13;;;;;;;22.50;61.26;96445.44;5085570;28;20044;-76
2021/09/12 11:15:29;;;;;;;6.03;4.05;;;;;;;22.46;61.95;96450.19;5076803;28;20052;-77
2021/09/12 11:17:56;;;;;;;6.30;3.65;;;;;;;22.38;62.33;96445.78;5085436;28;20101;-77
2021/09/12 11:20:22;;;;;;;7.60;3.47;;;;;;;22.34;62.44;96436.66;5072481;28;20098;-76
2021/09/12 11:22:50;;;;;;;5.68;3.60;;;;;;;22.30;61.63;96441.44;5064859;28;20049;-76
2021/09/12 11:25:21;;;;;;;4.97;3.47;;;;;;;22.32;62.09;96439.84;5064307;28;20090;-76
2021/09/12 11:28:00;;;;;;;4.07;3.42;;;;;;;22.39;61.06;96441.81;5064274;28;20048;-77
2021/09/12 11:30:28;;;;;;;5.28;3.80;;;;;;;22.39;60.82;96439.88;5084711;28;20044;-76
2021/09/12 11:32:55;;;;;;;4.50;3.45;;;;;;;22.40;59.44;96440.66;5085063;28;20044;-76
2021/09/12 11:35:21;;;;;;;5.97;3.85;;;;;;;22.34;59.11;96433.88;5084423;28;20533;-76